Time;durP1;ratioP1;P1;durP2;ratioP2;P2;SDS_P1;SDS_P2;PMS_P1;PMS_P2;Temp;Humidity;BMP_temperature;BMP_pressure;BME280_temperature;BME280_humidity;BME280_pressure;Samples;Min_cycle;Max_cycle;Signal;HPM_P1;HPM_P2
2021/07/25 00:01:03;;;;;;;83.30;66.95;;;18.20;99.90;;;;;;5028553;28;25050;-61
2021/07/25 00:03:29;;;;;;;78.63;64.20;;;18.20;99.90;;;;;;5032454;28;25072;-60
2021/07/25 00:05:54;;;;;;;87.85;67.55;;;18.20;99.90;;;;;;5029748;28;25092;-60
2021/07/25 00:08:20;;;;;;;83.43;67.82;;;18.20;99.90;;;;;;5027897;28;25086;-62
2021/07/25 00:10:46;;;;;;;85.45;66.13;;;18.30;99.90;;;;;;5028356;28;25463;-62
2021/07/25 00:13:13;;;;;;;86.25;66.72;;;18.20;99.90;;;;;;5025604;28;25138;-64
2021/07/25 00:15:39;;;;;;;91.38;65.03;;;18.20;99.90;;;;;;5027591;28;25100;-60
2021/07/25 00:18:05;;;;;;;84.80;66.30;;;18.20;99.90;;;;;;5025549;28;25050;-60
2021/07/25 00:20:31;;;;;;;93.40;69.72;;;18.10;99.90;;;;;;5024151;28;25063;-61
2021/07/25 00:22:57;;;;;;;93.00;68.57;;;18.10;99.90;;;;;;5025843;28;25140;-61
2021/07/25 00:25:23;;;;;;;84.10;64.95;;;18.10;99.90;;;;;;5027512;28;25100;-60
2021/07/25 00:27:54;;;;;;;85.65;66.50;;;18.10;99.90;;;;;;5026715;28;25091;-60
2021/07/25 00:30:21;;;;;;;80.78;67.95;;;18.30;99.90;;;;;;5026338;28;25051;-60
2021/07/25 00:32:50;;;;;;;82.07;65.55;;;18.40;99.90;;;;;;5027746;28;25124;-60
2021/07/25 00:35:18;;;;;;;82.35;64.75;;;18.30;99.90;;;;;;5027424;28;25118;-62
2021/07/25 00:37:49;;;;;;;89.28;66.75;;;18.20;99.90;;;;;;5026446;28;25089;-61
2021/07/25 00:40:24;;;;;;;85.95;67.13;;;18.10;99.90;;;;;;5027441;28;25073;-62
2021/07/25 00:42:49;;;;;;;82.13;67.05;;;18.20;99.90;;;;;;5024294;28;25169;-62
2021/07/25 00:45:15;;;;;;;80.78;66.50;;;18.20;99.90;;;;;;5027510;28;25102;-62
2021/07/25 00:47:40;;;;;;;80.38;64.30;;;18.10;99.90;;;;;;5024256;28;25082;-62
2021/07/25 00:50:08;;;;;;;85.28;65.07;;;18.10;99.90;;;;;;5028063;28;25060;-61
2021/07/25 00:52:33;;;;;;;83.10;63.25;;;18.00;99.90;;;;;;5027278;28;25077;-62
2021/07/25 00:54:59;;;;;;;84.90;64.63;;;18.00;99.90;;;;;;5027505;28;25063;-61
2021/07/25 00:57:25;;;;;;;93.10;67.30;;;17.90;99.90;;;;;;5026116;28;25157;-61
2021/07/25 00:59:50;;;;;;;88.47;66.65;;;18.00;99.90;;;;;;5025476;28;25084;-60
2021/07/25 01:02:16;;;;;;;93.28;69.55;;;18.00;99.90;;;;;;5028038;28;25134;-61
2021/07/25 01:04:45;;;;;;;98.18;70.53;;;17.90;99.90;;;;;;5030415;28;25080;-60
2021/07/25 01:07:40;;;;;;;93.95;70.25;;;17.90;99.90;;;;;;5024314;28;25054;-60
2021/07/25 01:10:14;;;;;;;93.07;68.97;;;18.00;99.90;;;;;;5022619;28;25084;-61
2021/07/25 01:12:45;;;;;;;91.85;71.60;;;18.10;99.90;;;;;;5024582;28;25110;-61
2021/07/25 01:15:17;;;;;;;94.03;70.10;;;18.20;99.90;;;;;;5024880;28;25090;-61
2021/07/25 01:17:42;;;;;;;94.07;70.38;;;18.20;99.90;;;;;;5023110;28;25068;-59
2021/07/25 01:20:12;;;;;;;94.60;70.50;;;18.30;99.90;;;;;;5025637;28;25105;-59
2021/07/25 01:22:40;;;;;;;93.22;68.43;;;18.20;99.90;;;;;;5028289;28;25107;-61
2021/07/25 01:25:08;;;;;;;93.78;68.72;;;18.30;99.90;;;;;;5030799;28;25171;-61
2021/07/25 01:27:37;;;;;;;95.03;70.43;;;18.20;99.90;;;;;;5033187;28;25071;-60
2021/07/25 01:30:06;;;;;;;88.85;70.47;;;18.20;99.90;;;;;;5033375;28;25081;-62
2021/07/25 01:32:33;;;;;;;93.15;69.72;;;18.20;99.90;;;;;;5033500;28;25160;-62
2021/07/25 01:35:00;;;;;;;96.05;69.20;;;18.20;99.90;;;;;;5030122;28;25068;-61
2021/07/25 01:37:28;;;;;;;85.50;67.18;;;18.20;99.90;;;;;;5026882;28;25153;-62
2021/07/25 01:39:53;;;;;;;81.88;65.85;;;18.10;99.90;;;;;;5026651;28;25064;-62
2021/07/25 01:42:29;;;;;;;94.97;68.10;;;18.10;99.90;;;;;;5019687;28;25050;-61
2021/07/25 01:44:55;;;;;;;86.68;65.22;;;18.10;99.90;;;;;;5030727;28;25152;-61
2021/07/25 01:47:21;;;;;;;89.32;65.10;;;18.30;99.90;;;;;;5031406;28;25104;-61
2021/07/25 01:49:46;;;;;;;87.22;64.90;;;18.30;99.90;;;;;;5036434;28;25059;-62
2021/07/25 01:52:12;;;;;;;78.63;65.47;;;18.40;99.90;;;;;;5030768;28;25082;-62
2021/07/25 01:54:37;;;;;;;84.55;64.25;;;18.40;99.90;;;;;;5030217;28;25091;-60
2021/07/25 01:57:03;;;;;;;82.88;65.13;;;18.20;99.90;;;;;;5030065;28;25102;-60
2021/07/25 01:59:28;;;;;;;81.97;64.78;;;18.20;99.90;;;;;;5012467;28;25172;-60
2021/07/25 02:01:54;;;;;;;75.57;61.08;;;18.30;99.90;;;;;;5027341;28;25068;-61
2021/07/25 02:04:19;;;;;;;75.53;63.50;;;18.40;99.90;;;;;;5028902;28;25164;-60
2021/07/25 02:06:45;;;;;;;75.00;62.22;;;18.30;99.90;;;;;;5029991;28;25151;-60
2021/07/25 02:09:13;;;;;;;78.63;64.68;;;18.30;99.90;;;;;;5030695;28;25077;-60
2021/07/25 02:11:38;;;;;;;78.22;63.55;;;18.40;99.90;;;;;;5014379;28;25108;-59
2021/07/25 02:14:05;;;;;;;76.45;62.47;;;18.40;99.90;;;;;;5026854;28;26182;-60
2021/07/25 02:16:31;;;;;;;74.47;61.35;;;18.50;99.90;;;;;;5038930;28;25084;-60
2021/07/25 02:18:56;;;;;;;73.90;60.60;;;18.20;99.90;;;;;;5015206;28;25091;-62
2021/07/25 02:21:22;;;;;;;74.82;59.65;;;18.10;99.90;;;;;;5029521;28;25059;-60
2021/07/25 02:23:47;;;;;;;73.95;59.95;;;18.10;99.90;;;;;;5029700;28;25090;-61
2021/07/25 02:26:13;;;;;;;75.72;62.20;;;18.10;99.90;;;;;;5029760;28;25161;-61
2021/07/25 02:28:39;;;;;;;74.28;58.83;;;18.00;99.90;;;;;;5029251;28;25081;-61
2021/07/25 02:31:04;;;;;;;74.68;60.00;;;18.00;99.90;;;;;;5029999;28;25069;-61
2021/07/25 02:33:30;;;;;;;68.93;59.03;;;18.00;99.90;;;;;;5030202;28;25049;-61
2021/07/25 02:35:56;;;;;;;75.03;57.65;;;18.00;99.90;;;;;;5032713;28;25145;-63
2021/07/25 02:38:22;;;;;;;69.50;56.83;;;18.00;99.90;;;;;;5038404;28;25075;-61
2021/07/25 02:40:48;;;;;;;74.90;57.28;;;18.00;99.90;;;;;;5012180;28;25064;-61
2021/07/25 02:43:13;;;;;;;72.20;56.95;;;18.00;99.90;;;;;;5030821;28;25136;-63
2021/07/25 02:45:39;;;;;;;64.28;56.38;;;18.10;99.90;;;;;;5029011;28;25106;-61
2021/07/25 02:48:05;;;;;;;74.55;55.70;;;18.00;99.90;;;;;;5029148;28;25075;-63
2021/07/25 02:50:31;;;;;;;66.55;54.53;;;18.00;99.90;;;;;;5028890;28;25082;-61
2021/07/25 02:52:56;;;;;;;58.33;49.67;;;18.00;99.90;;;;;;5024974;28;25075;-62
2021/07/25 02:55:22;;;;;;;64.15;49.47;;;17.90;99.90;;;;;;5029511;28;25158;-62
2021/07/25 02:57:47;;;;;;;49.67;42.80;;;17.90;99.90;;;;;;5007542;28;25110;-62
2021/07/25 03:00:13;;;;;;;54.35;45.08;;;17.90;99.90;;;;;;5030196;28;25073;-60
2021/07/25 03:02:39;;;;;;;48.50;40.67;;;17.90;99.90;;;;;;5029109;28;25100;-61
2021/07/25 03:05:05;;;;;;;55.65;41.25;;;17.90;99.90;;;;;;5029194;28;25085;-61
2021/07/25 03:07:31;;;;;;;44.40;39.25;;;17.90;99.90;;;;;;5012420;28;25096;-61
2021/07/25 03:09:56;;;;;;;48.25;38.08;;;18.00;99.90;;;;;;5033013;28;25113;-62
2021/07/25 03:12:22;;;;;;;50.10;38.65;;;18.00;99.90;;;;;;5032482;28;25062;-61
2021/07/25 03:14:48;;;;;;;44.13;35.15;;;18.00;99.90;;;;;;5029066;28;25173;-61
2021/07/25 03:17:13;;;;;;;40.75;31.95;;;18.00;99.90;;;;;;5030156;28;25093;-62
2021/07/25 03:19:39;;;;;;;42.78;33.80;;;17.90;99.90;;;;;;5015916;28;25065;-62
2021/07/25 03:22:07;;;;;;;41.08;31.83;;;17.90;99.90;;;;;;5032390;28;25144;-62
2021/07/25 03:24:33;;;;;;;35.15;27.88;;;17.90;99.90;;;;;;5029903;28;25106;-66
2021/07/25 03:26:59;;;;;;;35.25;28.33;;;18.00;99.90;;;;;;5028279;28;25077;-61
2021/07/25 03:29:25;;;;;;;37.35;26.98;;;18.00;99.90;;;;;;5028197;28;25092;-61
2021/07/25 03:31:51;;;;;;;39.67;28.92;;;17.90;99.90;;;;;;5029182;28;25069;-62
2021/07/25 03:34:16;;;;;;;34.30;26.13;;;17.90;99.90;;;;;;5015172;28;25080;-62
2021/07/25 03:36:43;;;;;;;31.05;24.23;;;18.00;99.90;;;;;;5012730;28;25070;-61
2021/07/25 03:39:13;;;;;;;33.72;23.67;;;18.00;99.90;;;;;;5028381;28;25094;-61
2021/07/25 03:41:38;;;;;;;24.77;22.15;;;18.00;99.90;;;;;;5027909;28;25124;-61
2021/07/25 03:44:04;;;;;;;32.25;28.13;;;17.90;99.90;;;;;;5059325;22;25067;-66
2021/07/25 03:46:31;;;;;;;30.35;22.95;;;17.90;99.90;;;;;;5053809;28;25062;-65
2021/07/25 03:48:56;;;;;;;29.90;24.45;;;17.80;99.90;;;;;;5072580;28;25093;-65
2021/07/25 03:51:22;;;;;;;25.38;22.60;;;17.80;99.90;;;;;;5070919;28;25076;-64
2021/07/25 03:53:47;;;;;;;27.60;23.35;;;17.90;99.90;;;;;;5063637;28;25061;-64
2021/07/25 03:56:13;;;;;;;26.35;22.42;;;17.90;99.90;;;;;;5047747;28;25160;-65
2021/07/25 03:58:38;;;;;;;28.58;24.73;;;18.00;99.90;;;;;;5048030;28;25119;-64
2021/07/25 04:01:04;;;;;;;27.45;23.65;;;17.90;99.90;;;;;;5041154;28;25075;-64
2021/07/25 04:03:29;;;;;;;27.20;24.33;;;17.80;99.90;;;;;;5037871;28;25047;-65
2021/07/25 04:05:55;;;;;;;29.05;23.92;;;17.90;99.90;;;;;;5045623;28;25161;-65
2021/07/25 04:08:21;;;;;;;35.83;25.52;;;17.80;99.90;;;;;;5036830;28;25057;-65
2021/07/25 04:10:47;;;;;;;30.35;24.02;;;17.70;99.90;;;;;;5054722;28;25353;-65
2021/07/25 04:13:13;;;;;;;32.03;24.83;;;17.70;99.90;;;;;;5045992;28;25153;-65
2021/07/25 04:15:40;;;;;;;28.40;25.20;;;17.60;99.90;;;;;;5052343;28;25058;-65
2021/07/25 04:18:06;;;;;;;29.48;24.52;;;17.60;99.90;;;;;;5038031;28;25063;-66
2021/07/25 04:20:32;;;;;;;33.33;25.67;;;17.60;99.90;;;;;;5054818;28;25053;-65
2021/07/25 04:22:57;;;;;;;30.65;26.27;;;17.60;99.90;;;;;;5049009;28;25139;-65
2021/07/25 04:25:23;;;;;;;31.23;25.90;;;17.60;99.90;;;;;;5047574;28;25103;-66
2021/07/25 04:27:49;;;;;;;27.23;22.35;;;17.50;99.90;;;;;;5047938;28;25093;-65
2021/07/25 04:30:15;;;;;;;25.70;22.35;;;17.50;99.90;;;;;;5047560;28;25076;-65
2021/07/25 04:32:40;;;;;;;27.80;22.92;;;17.50;99.90;;;;;;5048086;28;25041;-64
2021/07/25 04:35:08;;;;;;;29.55;23.45;;;17.50;99.90;;;;;;5048019;28;25117;-65
2021/07/25 04:37:36;;;;;;;28.35;21.42;;;17.50;99.90;;;;;;5046484;28;25057;-65
2021/07/25 04:40:02;;;;;;;28.05;21.63;;;17.40;99.90;;;;;;5054482;28;25096;-65
2021/07/25 04:42:32;;;;;;;26.42;18.80;;;17.40;99.90;;;;;;5045789;28;25107;-65
2021/07/25 04:45:03;;;;;;;25.38;21.63;;;17.40;99.90;;;;;;5046912;28;25060;-65
2021/07/25 04:47:53;;;;;;;23.75;21.20;;;17.40;99.90;;;;;;5045570;28;25094;-64
2021/07/25 04:50:25;;;;;;;25.98;22.80;;;17.40;99.90;;;;;;5047903;28;25059;-65
2021/07/25 04:52:56;;;;;;;23.58;21.08;;;17.40;99.90;;;;;;5045864;28;25145;-64
2021/07/25 04:55:25;;;;;;;23.73;19.05;;;17.30;99.90;;;;;;5056228;28;25078;-65
2021/07/25 04:58:01;;;;;;;27.05;20.25;;;17.30;99.90;;;;;;5038219;28;25054;-66
2021/07/25 05:00:30;;;;;;;22.73;18.98;;;17.30;99.90;;;;;;5029643;28;25066;-65
2021/07/25 05:03:01;;;;;;;23.42;17.90;;;17.30;99.90;;;;;;5023069;28;25093;-65
2021/07/25 05:05:27;;;;;;;23.50;17.95;;;17.20;99.90;;;;;;5046482;28;25060;-63
2021/07/25 05:07:53;;;;;;;21.92;16.60;;;17.30;99.90;;;;;;5038504;28;25065;-65
2021/07/25 05:10:19;;;;;;;22.73;17.15;;;17.30;99.90;;;;;;5046371;28;25101;-64
2021/07/25 05:12:54;;;;;;;21.60;16.48;;;17.30;99.90;;;;;;5046922;28;25074;-65
2021/07/25 05:15:46;;;;;;;21.52;17.90;;;17.30;99.90;;;;;;5043807;28;25069;-65
2021/07/25 05:18:38;;;;;;;20.45;15.75;;;17.40;99.90;;;;;;5044472;28;25066;-65
2021/07/25 05:21:07;;;;;;;24.17;16.33;;;17.40;99.90;;;;;;5039186;28;25050;-66
2021/07/25 05:23:51;;;;;;;20.25;16.13;;;17.40;99.90;;;;;;5041577;28;25071;-64
2021/07/25 05:26:23;;;;;;;20.60;15.77;;;17.50;99.90;;;;;;5037582;28;25059;-65
2021/07/25 05:28:53;;;;;;;20.90;15.13;;;17.60;99.90;;;;;;5041111;28;25100;-65
2021/07/25 05:31:19;;;;;;;19.40;15.23;;;17.60;99.90;;;;;;5039941;28;25061;-63
2021/07/25 05:33:45;;;;;;;20.40;14.98;;;17.60;99.90;;;;;;5036727;28;25158;-65
2021/07/25 05:36:10;;;;;;;24.50;16.45;;;17.80;99.90;;;;;;5035472;28;25111;-66
2021/07/25 05:38:36;;;;;;;18.67;14.52;;;17.90;99.90;;;;;;5046761;28;25061;-64
2021/07/25 05:41:01;;;;;;;17.98;14.40;;;17.80;99.90;;;;;;5045839;28;25167;-64
2021/07/25 05:43:27;;;;;;;18.15;13.88;;;17.80;99.90;;;;;;5046743;28;25089;-64
2021/07/25 05:45:52;;;;;;;19.33;13.18;;;17.80;99.90;;;;;;5041519;28;25073;-66
2021/07/25 05:48:18;;;;;;;16.45;13.32;;;17.80;99.90;;;;;;5041331;28;25136;-65
2021/07/25 05:50:43;;;;;;;20.98;14.30;;;17.80;99.90;;;;;;5046042;28;25062;-65
2021/07/25 05:53:09;;;;;;;18.05;14.73;;;17.80;99.90;;;;;;5041218;28;25058;-67
2021/07/25 05:55:35;;;;;;;23.23;14.90;;;17.80;99.90;;;;;;5041799;28;25125;-64
2021/07/25 05:58:01;;;;;;;20.35;17.05;;;17.70;99.90;;;;;;5042754;28;25057;-64
2021/07/25 06:00:27;;;;;;;25.38;16.77;;;17.70;99.90;;;;;;5041857;28;25131;-64
2021/07/25 06:02:57;;;;;;;23.70;16.40;;;17.70;99.90;;;;;;5044147;28;25066;-64
2021/07/25 06:05:34;;;;;;;23.65;19.63;;;17.70;99.90;;;;;;5032381;28;25072;-65
2021/07/25 06:08:01;;;;;;;21.98;18.55;;;17.80;99.90;;;;;;5043273;28;25127;-65
2021/07/25 06:10:29;;;;;;;25.30;22.80;;;17.90;99.90;;;;;;5045759;28;25127;-66
2021/07/25 06:13:03;;;;;;;20.60;18.45;;;17.90;99.90;;;;;;5043354;28;25060;-64
2021/07/25 06:15:30;;;;;;;22.98;20.50;;;18.10;99.90;;;;;;5050288;28;25057;-65
2021/07/25 06:17:56;;;;;;;27.17;22.40;;;18.20;99.90;;;;;;5051728;28;25104;-66
2021/07/25 06:20:23;;;;;;;38.92;35.30;;;18.40;99.90;;;;;;5029653;28;25095;-64
2021/07/25 06:22:53;;;;;;;35.90;31.25;;;18.50;99.90;;;;;;5047829;28;25101;-65
2021/07/25 06:25:27;;;;;;;34.42;31.42;;;18.50;99.90;;;;;;5048631;28;25111;-64
2021/07/25 06:27:55;;;;;;;30.25;27.60;;;18.40;99.90;;;;;;5031884;28;25100;-64
2021/07/25 06:30:23;;;;;;;32.70;29.70;;;18.60;99.90;;;;;;5048864;28;25165;-65
2021/07/25 06:33:08;;;;;;;30.10;26.92;;;18.80;99.90;;;;;;5045173;28;25066;-66
2021/07/25 06:35:35;;;;;;;24.95;22.38;;;19.00;99.90;;;;;;5047394;28;25134;-64
2021/07/25 06:38:22;;;;;;;31.13;27.90;;;19.10;99.90;;;;;;5045083;28;25074;-65
2021/07/25 06:40:50;;;;;;;27.75;25.23;;;19.50;99.90;;;;;;5048588;28;25130;-66
2021/07/25 06:43:16;;;;;;;21.02;15.88;;;19.80;99.90;;;;;;5049285;28;25069;-64
2021/07/25 06:45:42;;;;;;;23.67;15.43;;;19.90;99.90;;;;;;5046493;28;25075;-63
2021/07/25 06:48:25;;;;;;;28.88;15.65;;;20.00;99.90;;;;;;5042092;28;25164;-65
2021/07/25 06:50:56;;;;;;;22.88;15.38;;;20.20;99.90;;;;;;5046101;28;25149;-65
2021/07/25 06:53:24;;;;;;;21.63;15.10;;;20.30;99.90;;;;;;5048542;28;25125;-65
2021/07/25 06:55:52;;;;;;;29.95;15.70;;;20.30;99.90;;;;;;5047146;28;25092;-65
2021/07/25 06:58:19;;;;;;;27.10;15.85;;;20.10;99.90;;;;;;5043820;28;25068;-65
2021/07/25 07:00:45;;;;;;;20.30;13.90;;;20.10;99.90;;;;;;5046026;28;25063;-65
2021/07/25 07:03:10;;;;;;;26.25;16.65;;;20.00;99.90;;;;;;5045316;28;25129;-66
2021/07/25 07:05:36;;;;;;;25.45;15.02;;;20.00;99.90;;;;;;5040024;28;25064;-65
2021/07/25 07:08:04;;;;;;;21.10;14.70;;;20.00;99.90;;;;;;5051158;28;25069;-65
2021/07/25 07:10:35;;;;;;;20.88;15.18;;;20.00;99.90;;;;;;5048527;28;25114;-66
2021/07/25 07:13:08;;;;;;;21.48;13.15;;;19.90;99.90;;;;;;5048435;28;25114;-63
2021/07/25 07:15:39;;;;;;;24.00;15.32;;;19.90;99.90;;;;;;5037439;28;25072;-65
2021/07/25 07:18:05;;;;;;;21.58;14.02;;;20.00;99.90;;;;;;5049548;28;25080;-66
2021/07/25 07:20:32;;;;;;;26.50;16.08;;;20.10;99.90;;;;;;5064369;28;25147;-66
2021/07/25 07:23:06;;;;;;;23.65;15.05;;;20.30;99.90;;;;;;5052371;28;25125;-67
2021/07/25 07:25:39;;;;;;;20.95;13.75;;;20.40;99.90;;;;;;5049549;28;25081;-66
2021/07/25 07:28:06;;;;;;;32.75;15.23;;;20.40;99.90;;;;;;5052040;28;25076;-66
2021/07/25 07:30:32;;;;;;;21.27;15.73;;;20.50;99.90;;;;;;5058325;28;25060;-65
2021/07/25 07:33:09;;;;;;;20.88;14.75;;;20.60;99.90;;;;;;5044809;28;25150;-66
2021/07/25 07:35:34;;;;;;;23.35;13.90;;;20.50;99.90;;;;;;5031389;28;25107;-66
2021/07/25 07:38:00;;;;;;;22.83;14.57;;;20.90;99.90;;;;;;5044445;28;25120;-67
2021/07/25 07:40:26;;;;;;;23.35;15.35;;;21.00;99.90;;;;;;5050192;28;25076;-65
2021/07/25 07:42:51;;;;;;;23.13;15.52;;;21.00;99.90;;;;;;5048931;28;25062;-66
2021/07/25 07:45:18;;;;;;;20.13;14.02;;;21.20;99.90;;;;;;5054877;28;25050;-65
2021/07/25 07:47:48;;;;;;;20.17;14.65;;;21.40;99.90;;;;;;5052574;28;25085;-67
2021/07/25 07:50:15;;;;;;;19.17;14.43;;;21.50;99.90;;;;;;5051716;28;25084;-65
2021/07/25 07:52:40;;;;;;;19.60;14.38;;;21.60;99.90;;;;;;5048454;28;25062;-64
2021/07/25 07:55:06;;;;;;;27.88;13.57;;;21.80;99.90;;;;;;5048995;28;25061;-67
2021/07/25 07:57:32;;;;;;;25.00;14.52;;;22.10;99.90;;;;;;5040326;28;25119;-67
2021/07/25 07:59:57;;;;;;;23.67;15.93;;;22.10;99.90;;;;;;5050239;28;25110;-65
2021/07/25 08:02:23;;;;;;;17.70;13.02;;;22.30;99.90;;;;;;5048491;28;25066;-65
2021/07/25 08:04:49;;;;;;;18.13;13.50;;;22.50;99.90;;;;;;5050127;28;25059;-65
2021/07/25 08:07:14;;;;;;;19.45;13.07;;;22.70;99.90;;;;;;5048927;28;25117;-66
2021/07/25 08:09:40;;;;;;;21.88;13.38;;;22.90;99.90;;;;;;5048268;28;25087;-67
2021/07/25 08:12:06;;;;;;;18.75;12.27;;;22.90;99.90;;;;;;5033877;28;25147;-66
2021/07/25 08:14:32;;;;;;;19.05;13.32;;;22.90;99.90;;;;;;5046331;28;25070;-65
2021/07/25 08:16:58;;;;;;;21.30;13.13;;;22.60;99.90;;;;;;5048301;28;25084;-65
2021/07/25 08:19:24;;;;;;;18.67;12.82;;;22.20;99.90;;;;;;5048331;28;25065;-66
2021/07/25 08:21:49;;;;;;;19.02;12.85;;;22.20;99.90;;;;;;5032594;28;25134;-66
2021/07/25 08:24:15;;;;;;;21.25;12.80;;;22.30;99.90;;;;;;5047498;28;25065;-65
2021/07/25 08:26:41;;;;;;;18.55;13.50;;;22.40;99.90;;;;;;5052045;28;25072;-66
2021/07/25 08:29:06;;;;;;;22.10;13.85;;;22.40;99.90;;;;;;5049145;28;25067;-66
2021/07/25 08:31:33;;;;;;;20.75;14.05;;;22.60;99.90;;;;;;5043865;28;25088;-66
2021/07/25 08:33:59;;;;;;;27.50;14.55;;;22.70;99.90;;;;;;5042231;28;25052;-65
2021/07/25 08:36:25;;;;;;;18.98;13.43;;;22.70;99.90;;;;;;5041053;28;25170;-66
2021/07/25 08:38:50;;;;;;;18.45;13.05;;;22.70;99.90;;;;;;5042633;28;25053;-66
2021/07/25 08:41:34;;;;;;;19.45;13.98;;;22.80;99.90;;;;;;5038443;28;25086;-66
2021/07/25 08:44:29;;;;;;;20.98;13.77;;;22.70;99.90;;;;;;5039519;28;25155;-67
2021/07/25 08:46:55;;;;;;;20.85;14.70;;;22.70;99.90;;;;;;5040827;28;25087;-66
2021/07/25 08:49:34;;;;;;;30.15;15.52;;;22.70;99.90;;;;;;5036988;28;25091;-67
2021/07/25 08:52:03;;;;;;;23.83;15.48;;;22.50;99.90;;;;;;5042197;28;25076;-66
2021/07/25 08:54:29;;;;;;;19.50;15.45;;;22.50;99.90;;;;;;5051445;28;25081;-65
2021/07/25 08:57:02;;;;;;;23.35;15.98;;;22.50;99.90;;;;;;5045218;28;25169;-66
2021/07/25 08:59:34;;;;;;;24.02;15.02;;;22.70;99.90;;;;;;5046888;28;25059;-66
2021/07/25 09:02:02;;;;;;;20.80;15.38;;;22.70;99.90;;;;;;5049306;28;25056;-66
2021/07/25 09:04:29;;;;;;;21.70;14.18;;;22.80;99.90;;;;;;5050610;28;25053;-67
2021/07/25 09:07:02;;;;;;;21.75;15.68;;;23.00;99.90;;;;;;5031794;28;25105;-68
2021/07/25 09:09:27;;;;;;;22.92;15.48;;;23.00;99.90;;;;;;5052738;28;25063;-68
2021/07/25 09:11:53;;;;;;;22.77;15.52;;;22.90;99.90;;;;;;5056604;28;25090;-67
2021/07/25 09:14:19;;;;;;;26.33;16.55;;;22.70;99.90;;;;;;5057008;28;25073;-66
2021/07/25 09:16:44;;;;;;;22.15;15.45;;;22.90;99.90;;;;;;5048023;28;25154;-67
2021/07/25 09:19:10;;;;;;;25.00;15.18;;;23.20;99.90;;;;;;5051249;28;25065;-67
2021/07/25 09:21:45;;;;;;;22.88;15.60;;;23.00;99.90;;;;;;5050281;28;25070;-68
2021/07/25 09:24:26;;;;;;;22.95;14.50;;;22.90;99.90;;;;;;5053118;28;25154;-66
2021/07/25 09:26:54;;;;;;;23.08;14.65;;;23.00;99.90;;;;;;5028603;28;25082;-67
2021/07/25 09:29:22;;;;;;;20.45;12.88;;;22.80;99.90;;;;;;5053443;28;25071;-68
2021/07/25 09:31:48;;;;;;;16.13;11.32;;;22.70;99.90;;;;;;5050614;28;25052;-69
2021/07/25 09:34:36;;;;;;;18.77;10.10;;;22.80;99.90;;;;;;5045461;28;25067;-68
2021/07/25 09:37:27;;;;;;;16.38;11.98;;;23.20;99.90;;;;;;5023365;28;25075;-69
2021/07/25 09:39:55;;;;;;;17.83;11.75;;;23.20;99.90;;;;;;5052173;28;25060;-69
2021/07/25 09:42:28;;;;;;;14.57;10.77;;;23.00;99.90;;;;;;5051003;28;25113;-68
2021/07/25 09:44:55;;;;;;;14.80;10.20;;;23.00;99.90;;;;;;5072979;22;25076;-64
2021/07/25 09:47:28;;;;;;;13.52;7.53;;;23.20;99.90;;;;;;5050759;28;25065;-65
2021/07/25 09:49:55;;;;;;;8.23;5.53;;;23.40;99.90;;;;;;5051181;28;25153;-65
2021/07/25 09:52:47;;;;;;;8.10;5.55;;;23.60;99.90;;;;;;5024382;28;25125;-65
2021/07/25 09:55:12;;;;;;;7.97;6.15;;;23.80;99.90;;;;;;5044405;28;25093;-66
2021/07/25 09:57:52;;;;;;;10.30;5.20;;;23.80;99.90;;;;;;5050346;28;25061;-66
2021/07/25 10:00:18;;;;;;;8.82;5.32;;;23.80;99.90;;;;;;5029908;28;25075;-65
2021/07/25 10:02:45;;;;;;;13.35;6.15;;;24.00;99.90;;;;;;5051655;28;25076;-65
2021/07/25 10:05:11;;;;;;;8.70;5.70;;;24.10;99.90;;;;;;5046036;28;25056;-65
2021/07/25 10:07:37;;;;;;;13.93;6.47;;;24.10;99.90;;;;;;5049721;28;25124;-65
2021/07/25 10:10:04;;;;;;;9.73;5.38;;;24.00;99.90;;;;;;5046115;28;25112;-65
2021/07/25 10:12:35;;;;;;;8.75;5.45;;;24.00;99.90;;;;;;5046977;28;25092;-65
2021/07/25 10:15:04;;;;;;;12.38;5.20;;;24.00;99.90;;;;;;5029014;28;25221;-66
2021/07/25 10:17:38;;;;;;;6.03;3.50;;;24.00;99.90;;;;;;5050017;28;25109;-65
2021/07/25 10:20:05;;;;;;;4.93;3.53;;;24.10;99.90;;;;;;5051238;28;25060;-66
2021/07/25 10:22:33;;;;;;;7.25;4.50;;;24.10;99.90;;;;;;5049085;28;25067;-66
2021/07/25 10:25:04;;;;;;;5.65;3.65;;;24.20;99.90;;;;;;5051242;28;25099;-66
2021/07/25 10:27:31;;;;;;;14.77;4.32;;;24.40;99.90;;;;;;5064850;28;25074;-66
2021/07/25 10:30:02;;;;;;;7.50;3.83;;;24.50;99.90;;;;;;5057563;28;25082;-66
2021/07/25 10:32:31;;;;;;;13.38;5.25;;;24.60;99.90;;;;;;5041549;28;25072;-66
2021/07/25 10:34:59;;;;;;;11.15;4.45;;;24.70;99.90;;;;;;5055307;28;25153;-65
2021/07/25 10:37:26;;;;;;;8.15;5.10;;;24.70;99.90;;;;;;5064680;28;25070;-65
2021/07/25 10:39:54;;;;;;;12.55;5.70;;;24.80;99.90;;;;;;5055649;28;25054;-65
2021/07/25 10:42:23;;;;;;;8.40;5.18;;;24.90;99.90;;;;;;5056039;28;25083;-66
2021/07/25 10:44:49;;;;;;;12.25;5.95;;;24.60;99.90;;;;;;5049891;28;25065;-65
2021/07/25 10:47:31;;;;;;;8.52;5.03;;;24.40;99.90;;;;;;5049745;28;25074;-66
2021/07/25 10:50:15;;;;;;;8.32;5.38;;;24.50;99.90;;;;;;5051782;28;25057;-66
2021/07/25 10:52:49;;;;;;;11.65;5.38;;;24.70;99.90;;;;;;5048125;28;25068;-66
2021/07/25 10:55:34;;;;;;;8.63;4.93;;;24.70;99.90;;;;;;5043920;28;25137;-67
2021/07/25 10:58:04;;;;;;;8.65;5.35;;;25.00;99.90;;;;;;5047336;28;25129;-65
2021/07/25 11:00:40;;;;;;;8.20;5.45;;;25.10;99.90;;;;;;5051467;28;25074;-65
2021/07/25 11:03:06;;;;;;;7.10;5.20;;;25.00;99.90;;;;;;5052313;28;25133;-67
2021/07/25 11:05:32;;;;;;;15.48;4.53;;;25.00;99.90;;;;;;5051796;28;25145;-66
2021/07/25 11:08:00;;;;;;;26.10;7.32;;;25.20;99.90;;;;;;5050769;28;25112;-66
2021/07/25 11:10:35;;;;;;;6.32;3.85;;;25.40;99.90;;;;;;5050154;28;25105;-65
2021/07/25 11:13:01;;;;;;;6.90;4.50;;;25.40;99.90;;;;;;5030071;28;25061;-67
2021/07/25 11:15:32;;;;;;;8.15;4.47;;;25.60;99.90;;;;;;5048331;28;25060;-66
2021/07/25 11:18:03;;;;;;;6.55;4.20;;;25.70;99.90;;;;;;5048033;28;25064;-66
2021/07/25 11:20:52;;;;;;;11.07;5.63;;;25.70;99.90;;;;;;5028846;28;25155;-67
2021/07/25 11:23:20;;;;;;;9.48;5.10;;;25.70;99.90;;;;;;5055779;28;25056;-66
2021/07/25 11:25:50;;;;;;;10.70;5.07;;;25.60;99.90;;;;;;5053819;28;25153;-67
2021/07/25 11:28:42;;;;;;;8.18;5.05;;;25.60;99.90;;;;;;5024865;28;25067;-66
2021/07/25 11:31:08;;;;;;;5.50;4.40;;;25.70;99.90;;;;;;5032293;28;25089;-66
2021/07/25 11:33:43;;;;;;;7.68;4.15;;;25.50;99.90;;;;;;5045095;28;25110;-66
2021/07/25 11:36:09;;;;;;;6.55;3.65;;;25.60;99.90;;;;;;5058832;28;25057;-66
2021/07/25 11:38:38;;;;;;;5.28;3.83;;;25.40;99.90;;;;;;5053200;28;25154;-65
2021/07/25 11:41:05;;;;;;;8.07;3.13;;;25.30;99.90;;;;;;5033978;28;25061;-64
2021/07/25 11:43:54;;;;;;;5.35;3.47;;;25.10;99.90;;;;;;5030790;28;25083;-69
2021/07/25 11:46:30;;;;;;;4.60;3.75;;;25.00;99.90;;;;;;5045203;28;25057;-65
2021/07/25 11:49:15;;;;;;;9.00;3.67;;;24.70;99.90;;;;;;5036384;28;25077;-66
2021/07/25 11:51:59;;;;;;;4.20;3.05;;;24.40;99.90;;;;;;5056677;28;25084;-66
2021/07/25 11:54:30;;;;;;;9.40;3.60;;;24.40;99.90;;;;;;5056307;28;25114;-66
2021/07/25 11:56:57;;;;;;;4.90;3.08;;;24.40;99.90;;;;;;5052123;28;25072;-65
2021/07/25 11:59:23;;;;;;;6.95;3.10;;;24.40;99.90;;;;;;5055337;28;25142;-65
2021/07/25 12:01:49;;;;;;;4.63;2.97;;;24.40;99.90;;;;;;5031095;28;25141;-65
2021/07/25 12:04:18;;;;;;;5.95;3.22;;;24.50;99.90;;;;;;5032268;28;25068;-65
2021/07/25 12:06:44;;;;;;;8.18;3.47;;;24.60;99.90;;;;;;5056606;28;25126;-66
2021/07/25 12:09:10;;;;;;;7.32;3.55;;;24.80;99.90;;;;;;5048817;28;25144;-67
2021/07/25 12:11:38;;;;;;;5.03;3.00;;;24.80;99.90;;;;;;5043795;28;25085;-66
2021/07/25 12:14:05;;;;;;;5.18;2.63;;;25.00;99.90;;;;;;5027914;28;25075;-66
2021/07/25 12:16:47;;;;;;;5.75;3.83;;;25.20;99.90;;;;;;5045224;28;25056;-65
2021/07/25 12:19:18;;;;;;;8.43;4.35;;;25.20;99.90;;;;;;5027722;28;25108;-68
2021/07/25 12:21:46;;;;;;;6.45;3.42;;;24.90;99.90;;;;;;5051993;28;25086;-66
2021/07/25 12:24:35;;;;;;;6.15;3.70;;;25.00;99.90;;;;;;5060089;28;25102;-67
2021/07/25 12:27:03;;;;;;;8.07;3.53;;;25.40;99.90;;;;;;5039138;28;25073;-67
2021/07/25 12:29:44;;;;;;;5.25;3.10;;;25.30;99.90;;;;;;5058286;28;25141;-66
2021/07/25 12:32:23;;;;;;;4.63;3.30;;;25.70;99.90;;;;;;5049174;28;25060;-66
2021/07/25 12:35:13;;;;;;;8.90;3.67;;;26.20;99.90;;;;;;5055890;28;25061;-68
2021/07/25 12:37:45;;;;;;;10.00;3.38;;;26.50;99.90;;;;;;5047340;28;25122;-67
2021/07/25 12:40:16;;;;;;;5.22;2.85;;;26.50;99.90;;;;;;5045480;28;25080;-66